Time;durP1;ratioP1;P1;durP2;ratioP2;P2;SDS_P1;SDS_P2;PMS_P1;PMS_P2;Temp;Humidity;BMP_temperature;BMP_pressure;BME280_temperature;BME280_humidity;BME280_pressure;Samples;Min_cycle;Max_cycle;Signal;HPM_P1;HPM_P2
2022/05/06 00:01:01;;;;;;;40.80;24.35;;;8.00;99.90;;;;;;5109757;28;20118;-71
2022/05/06 00:03:27;;;;;;;45.67;25.63;;;8.00;99.90;;;;;;5126381;27;20046;-69
2022/05/06 00:05:53;;;;;;;42.25;24.02;;;8.00;99.90;;;;;;5117145;27;20051;-69
2022/05/06 00:08:19;;;;;;;46.63;24.60;;;8.00;99.90;;;;;;5116760;27;20194;-69
2022/05/06 00:10:44;;;;;;;43.97;24.35;;;8.00;99.90;;;;;;5118210;27;20061;-69
2022/05/06 00:13:10;;;;;;;43.83;24.17;;;7.90;99.90;;;;;;5116240;27;20051;-69
2022/05/06 00:15:36;;;;;;;46.05;23.85;;;7.90;99.90;;;;;;5098631;28;20036;-69
2022/05/06 00:18:02;;;;;;;44.35;24.98;;;7.90;99.90;;;;;;5115349;27;20043;-69
2022/05/06 00:20:28;;;;;;;46.78;25.42;;;7.80;99.90;;;;;;5093764;28;20051;-69
2022/05/06 00:22:53;;;;;;;44.20;25.33;;;7.80;99.90;;;;;;5111345;27;20032;-69
2022/05/06 00:25:19;;;;;;;43.88;25.33;;;7.70;99.90;;;;;;5115461;27;20047;-69
2022/05/06 00:27:45;;;;;;;46.38;25.30;;;7.70;99.90;;;;;;5129237;27;20066;-69
2022/05/06 00:30:11;;;;;;;42.40;23.42;;;7.70;99.90;;;;;;5120651;27;20517;-69
2022/05/06 00:32:37;;;;;;;45.22;24.75;;;7.70;99.90;;;;;;5118821;27;20050;-69
2022/05/06 00:35:03;;;;;;;42.90;25.45;;;7.70;99.90;;;;;;5119218;27;20055;-69
2022/05/06 00:37:31;;;;;;;46.90;26.60;;;7.70;99.90;;;;;;5110112;27;20036;-69
2022/05/06 00:39:57;;;;;;;44.00;25.77;;;7.60;99.90;;;;;;5110337;27;20407;-69
2022/05/06 00:42:22;;;;;;;45.33;25.35;;;7.60;99.90;;;;;;5122702;27;20043;-69
2022/05/06 00:44:48;;;;;;;44.80;24.70;;;7.60;99.90;;;;;;5109942;27;20089;-69
2022/05/06 00:47:16;;;;;;;45.00;24.95;;;7.50;99.90;;;;;;5119710;27;20141;-69
2022/05/06 00:49:42;;;;;;;48.90;25.15;;;7.50;99.90;;;;;;5116954;27;20466;-69
2022/05/06 00:52:09;;;;;;;46.05;25.70;;;7.50;99.90;;;;;;5114794;27;20062;-69
2022/05/06 00:54:37;;;;;;;43.97;24.83;;;7.50;99.90;;;;;;5116116;27;20107;-69
2022/05/06 00:57:06;;;;;;;45.13;24.45;;;7.40;99.90;;;;;;5124622;27;20046;-69
2022/05/06 00:59:32;;;;;;;47.63;25.60;;;7.40;99.90;;;;;;5110052;27;20078;-69
2022/05/06 01:01:58;;;;;;;45.95;23.65;;;7.40;99.90;;;;;;5098901;28;20039;-70
2022/05/06 01:04:24;;;;;;;46.58;25.40;;;7.40;99.90;;;;;;5106383;27;20135;-70
2022/05/06 01:06:50;;;;;;;47.15;24.88;;;7.40;99.90;;;;;;5120627;27;20043;-69
2022/05/06 01:09:17;;;;;;;44.38;24.05;;;7.40;99.90;;;;;;5111834;27;20510;-69
2022/05/06 01:11:44;;;;;;;43.20;23.48;;;7.30;99.90;;;;;;5110835;27;20429;-69
2022/05/06 01:14:09;;;;;;;44.60;24.23;;;7.40;99.90;;;;;;5121070;27;20070;-69
2022/05/06 01:16:36;;;;;;;43.30;23.92;;;7.30;99.90;;;;;;5121574;27;20082;-69
2022/05/06 01:19:03;;;;;;;45.83;24.67;;;7.30;99.90;;;;;;5113890;27;20058;-69
2022/05/06 01:21:34;;;;;;;46.25;24.40;;;7.30;99.90;;;;;;5131329;27;20047;-69
2022/05/06 01:24:01;;;;;;;43.28;24.30;;;7.30;99.90;;;;;;5115849;27;20572;-69
2022/05/06 01:27:06;;;;;;;41.10;22.60;;;7.20;99.90;;;;;;5115035;27;20039;-70
2022/05/06 01:29:32;;;;;;;43.25;22.92;;;7.10;99.90;;;;;;5035610;28;20051;-70
2022/05/06 01:32:01;;;;;;;39.80;23.42;;;7.10;99.90;;;;;;5080374;27;20059;-70
2022/05/06 01:34:32;;;;;;;41.55;23.02;;;7.20;99.90;;;;;;5116103;27;20511;-70
2022/05/06 01:37:02;;;;;;;41.08;22.95;;;7.10;99.90;;;;;;5115172;27;20035;-68
2022/05/06 01:39:34;;;;;;;40.58;22.90;;;7.10;99.90;;;;;;5115387;27;20074;-68
2022/05/06 01:42:06;;;;;;;42.83;24.73;;;7.10;99.90;;;;;;5098624;27;20038;-68
2022/05/06 01:44:37;;;;;;;42.90;23.08;;;7.10;99.90;;;;;;5112608;27;20130;-69
2022/05/06 01:47:06;;;;;;;40.08;23.27;;;7.10;99.90;;;;;;5120541;27;20079;-68
2022/05/06 01:49:36;;;;;;;43.88;24.52;;;7.10;99.90;;;;;;5123434;27;20039;-69
2022/05/06 01:52:02;;;;;;;43.88;24.95;;;7.00;99.90;;;;;;5112292;27;20100;-69
2022/05/06 01:54:28;;;;;;;43.85;24.98;;;7.00;99.90;;;;;;5115240;27;20059;-70
2022/05/06 01:56:54;;;;;;;41.88;24.30;;;6.90;99.90;;;;;;5095830;28;20043;-69
2022/05/06 01:59:19;;;;;;;46.40;25.00;;;6.80;99.90;;;;;;5097709;27;20046;-67
2022/05/06 02:01:45;;;;;;;45.33;24.27;;;6.80;99.90;;;;;;5117171;27;20434;-67
2022/05/06 02:06:55;;;;;;;42.88;23.52;;;6.70;99.90;;;;;;5114058;27;20048;-68
2022/05/06 02:09:21;;;;;;;42.22;24.92;;;6.80;99.90;;;;;;5113087;27;20047;-68
2022/05/06 02:11:47;;;;;;;45.53;24.00;;;6.70;99.90;;;;;;5121301;27;20071;-68
2022/05/06 02:14:13;;;;;;;43.58;24.05;;;6.70;99.90;;;;;;5100419;28;20039;-69
2022/05/06 02:16:38;;;;;;;44.53;23.63;;;6.70;99.90;;;;;;5114192;27;20130;-68
2022/05/06 02:19:06;;;;;;;46.42;23.95;;;6.70;99.90;;;;;;5116254;27;20328;-70
2022/05/06 02:21:32;;;;;;;45.80;24.25;;;6.70;99.90;;;;;;5110451;27;20575;-70
2022/05/06 02:24:01;;;;;;;48.35;24.92;;;6.70;99.90;;;;;;5117319;27;20123;-70
2022/05/06 02:26:26;;;;;;;42.55;23.40;;;6.60;99.90;;;;;;5121551;27;20035;-70
2022/05/06 02:28:52;;;;;;;49.25;24.88;;;6.60;99.90;;;;;;5117759;27;20100;-70
2022/05/06 02:34:02;;;;;;;41.95;22.20;;;6.70;99.90;;;;;;5118671;27;20043;-70
2022/05/06 02:36:31;;;;;;;45.60;24.08;;;6.70;99.90;;;;;;5117369;27;20039;-70
2022/05/06 02:38:56;;;;;;;42.17;24.20;;;6.70;99.90;;;;;;5113914;27;20039;-69
2022/05/06 02:41:22;;;;;;;46.63;24.85;;;6.80;99.90;;;;;;5112543;27;20467;-69
2022/05/06 02:43:48;;;;;;;48.67;25.35;;;6.80;99.90;;;;;;5118782;27;20405;-69
2022/05/06 02:46:13;;;;;;;50.30;25.98;;;6.90;99.90;;;;;;5118395;27;20087;-68
2022/05/06 02:48:39;;;;;;;42.35;22.70;;;7.00;99.90;;;;;;5113147;27;20044;-69
2022/05/06 02:51:05;;;;;;;55.05;27.75;;;7.00;99.90;;;;;;5115246;27;20096;-69
2022/05/06 02:53:31;;;;;;;72.78;31.20;;;7.10;99.90;;;;;;5111060;27;20571;-69
2022/05/06 02:55:57;;;;;;;157.90;34.63;;;7.20;99.90;;;;;;5117273;27;20122;-68
2022/05/06 02:58:22;;;;;;;76.70;32.25;;;7.20;99.90;;;;;;5118870;27;20170;-68
2022/05/06 03:00:48;;;;;;;60.53;30.20;;;7.30;99.90;;;;;;5118127;27;20513;-69
2022/05/06 03:03:14;;;;;;;67.25;32.78;;;7.40;99.90;;;;;;5115936;27;20144;-68
2022/05/06 03:05:39;;;;;;;59.85;30.25;;;7.40;99.90;;;;;;5120303;27;20035;-69
2022/05/06 03:08:05;;;;;;;113.50;32.90;;;7.50;99.90;;;;;;5115726;27;20520;-69
2022/05/06 03:10:31;;;;;;;65.50;32.80;;;7.60;99.90;;;;;;5100657;27;20051;-68
2022/05/06 03:12:58;;;;;;;88.57;32.97;;;7.60;99.90;;;;;;5116079;27;20040;-68
2022/05/06 03:15:24;;;;;;;673.20;54.90;;;7.70;99.90;;;;;;5115815;27;20407;-68
2022/05/06 03:17:51;;;;;;;100.60;34.78;;;7.80;99.90;;;;;;5124095;27;20043;-68
2022/05/06 03:20:17;;;;;;;67.28;32.25;;;7.80;99.90;;;;;;5127790;27;20051;-69
2022/05/06 03:22:46;;;;;;;77.30;32.03;;;7.90;99.90;;;;;;5118238;27;20491;-68
2022/05/06 03:25:13;;;;;;;165.88;34.25;;;7.90;99.90;;;;;;5117796;27;20399;-69
2022/05/06 03:30:24;;;;;;;100.25;31.17;;;8.00;99.90;;;;;;5107442;28;20051;-68
2022/05/06 03:32:50;;;;;;;97.30;29.95;;;8.00;99.90;;;;;;5119626;28;20545;-69
2022/05/06 03:35:16;;;;;;;73.72;31.10;;;8.00;99.90;;;;;;5124172;28;20051;-68
2022/05/06 03:37:42;;;;;;;538.33;46.35;;;8.10;99.90;;;;;;5123625;27;20059;-68
2022/05/06 03:40:08;;;;;;;106.03;34.45;;;8.20;99.90;;;;;;5111973;28;20040;-68
2022/05/06 03:42:34;;;;;;;137.52;34.13;;;8.20;99.90;;;;;;5104603;27;20043;-68
2022/05/06 03:45:02;;;;;;;124.25;32.25;;;8.20;99.90;;;;;;5121105;27;20091;-68
2022/05/06 03:47:28;;;;;;;111.93;31.88;;;8.30;99.90;;;;;;5124555;27;20054;-69
2022/05/06 03:52:38;;;;;;;198.25;35.25;;;8.40;99.90;;;;;;5130394;27;20049;-68
2022/05/06 03:55:04;;;;;;;397.33;41.53;;;8.50;99.90;;;;;;5131367;27;20047;-68
2022/05/06 03:57:30;;;;;;;232.75;36.85;;;8.60;99.90;;;;;;5122294;27;20047;-68
2022/05/06 03:59:56;;;;;;;356.75;38.45;;;8.60;99.90;;;;;;5111546;28;20502;-68
2022/05/06 04:02:21;;;;;;;178.70;33.47;;;8.70;99.90;;;;;;5116390;27;20134;-69
2022/05/06 04:04:47;;;;;;;201.32;34.42;;;8.70;99.90;;;;;;5108532;27;20058;-69
2022/05/06 04:07:14;;;;;;;163.80;32.92;;;8.70;99.90;;;;;;5124218;27;20391;-69
2022/05/06 04:09:41;;;;;;;114.28;31.85;;;8.70;99.90;;;;;;5116552;27;20039;-68
2022/05/06 04:12:09;;;;;;;153.10;33.85;;;8.80;99.90;;;;;;5121584;27;20054;-68
2022/05/06 04:14:35;;;;;;;63.58;31.40;;;8.80;99.90;;;;;;5099436;27;20043;-68
2022/05/06 04:17:03;;;;;;;348.40;41.67;;;9.10;99.90;;;;;;5114173;27;20088;-68
2022/05/06 04:19:29;;;;;;;414.00;45.22;;;8.90;99.90;;;;;;5118349;27;20415;-69
2022/05/06 04:24:39;;;;;;;81.28;31.60;;;8.90;99.90;;;;;;5120027;27;20054;-68
2022/05/06 04:27:06;;;;;;;108.50;32.33;;;8.90;99.90;;;;;;5113785;27;20040;-68
2022/05/06 04:29:31;;;;;;;111.80;33.78;;;8.90;99.90;;;;;;5115735;27;20074;-68
2022/05/06 04:31:57;;;;;;;87.68;32.47;;;8.90;99.90;;;;;;5118781;27;20047;-68
2022/05/06 04:34:23;;;;;;;129.55;32.92;;;8.90;99.90;;;;;;5127525;27;20535;-68
2022/05/06 04:36:49;;;;;;;135.95;30.77;;;9.00;99.90;;;;;;5118589;27;20443;-68
2022/05/06 04:39:16;;;;;;;79.95;32.90;;;9.00;99.90;;;;;;5112546;27;20046;-67
2022/05/06 04:41:43;;;;;;;71.40;31.15;;;9.00;99.90;;;;;;5115655;27;20439;-68
2022/05/06 04:44:08;;;;;;;198.40;37.22;;;9.10;99.90;;;;;;5117169;27;20039;-69
2022/05/06 04:46:34;;;;;;;88.82;30.52;;;9.10;99.90;;;;;;5131659;27;20491;-68
2022/05/06 04:49:00;;;;;;;58.65;30.80;;;9.10;99.90;;;;;;5129346;27;20053;-68
2022/05/06 04:51:26;;;;;;;52.53;29.27;;;9.10;99.90;;;;;;5097528;28;20050;-68
2022/05/06 04:53:54;;;;;;;78.28;30.48;;;9.10;99.90;;;;;;5111941;27;20040;-68
2022/05/06 04:56:22;;;;;;;77.93;30.15;;;9.10;99.90;;;;;;5128543;27;20415;-68
2022/05/06 04:58:48;;;;;;;62.78;30.80;;;9.10;99.90;;;;;;5115909;27;20568;-68
2022/05/06 05:01:13;;;;;;;53.67;28.33;;;9.10;99.90;;;;;;5108436;27;20074;-68
2022/05/06 05:03:39;;;;;;;58.05;30.02;;;9.20;99.90;;;;;;5113212;27;20054;-68
2022/05/06 05:06:07;;;;;;;62.80;30.95;;;9.20;99.90;;;;;;5110285;27;20040;-68
2022/05/06 05:08:33;;;;;;;86.70;29.95;;;9.20;99.90;;;;;;5103155;27;20043;-68
2022/05/06 05:11:02;;;;;;;91.80;32.35;;;9.20;99.90;;;;;;5121494;27;20116;-68
2022/05/06 05:13:38;;;;;;;71.18;30.48;;;9.20;99.90;;;;;;5111206;27;20040;-69
2022/05/06 05:16:04;;;;;;;83.53;29.45;;;9.20;99.90;;;;;;5114338;27;20100;-69
2022/05/06 05:18:30;;;;;;;63.53;30.27;;;9.30;99.90;;;;;;5104754;27;20043;-68
2022/05/06 05:20:56;;;;;;;74.45;30.90;;;9.30;99.90;;;;;;5118151;27;20044;-68
2022/05/06 05:23:21;;;;;;;59.88;30.45;;;9.30;99.90;;;;;;5097774;27;20380;-68
2022/05/06 05:25:47;;;;;;;90.82;33.13;;;9.40;99.90;;;;;;5120045;27;20039;-68
2022/05/06 05:28:12;;;;;;;80.68;31.50;;;9.40;99.90;;;;;;5116860;27;20039;-68
2022/05/06 05:30:38;;;;;;;211.35;36.47;;;9.40;99.90;;;;;;5127138;27;20042;-66
2022/05/06 05:33:04;;;;;;;77.53;30.92;;;9.50;99.90;;;;;;5111695;27;20168;-68
2022/05/06 05:35:30;;;;;;;124.93;31.70;;;9.60;99.90;;;;;;5111436;27;20036;-68
2022/05/06 05:37:56;;;;;;;80.28;32.60;;;9.70;99.90;;;;;;5116000;27;20406;-69
2022/05/06 05:40:22;;;;;;;77.25;30.38;;;9.70;99.90;;;;;;5120205;27;20043;-68
2022/05/06 05:42:47;;;;;;;60.17;30.25;;;9.70;99.90;;;;;;5127988;27;20111;-68
2022/05/06 05:50:41;;;;;;;61.47;29.17;;;9.80;99.90;;;;;;5109808;27;20096;-68
2022/05/06 05:53:07;;;;;;;106.85;32.17;;;10.00;99.90;;;;;;5120303;27;20114;-69
2022/05/06 05:55:33;;;;;;;69.32;31.58;;;9.90;99.90;;;;;;5115127;27;20043;-68
2022/05/06 05:57:59;;;;;;;81.57;31.85;;;9.90;99.90;;;;;;5113508;27;20039;-68
2022/05/06 06:00:27;;;;;;;77.93;30.92;;;10.00;99.90;;;;;;5124701;27;21091;-69
2022/05/06 06:02:52;;;;;;;71.65;29.13;;;10.00;99.90;;;;;;5126297;27;20050;-68
2022/05/06 06:05:18;;;;;;;69.55;29.67;;;10.10;99.90;;;;;;5117444;27;20031;-68
2022/05/06 06:07:44;;;;;;;69.75;27.15;;;10.20;99.90;;;;;;5124325;27;20130;-68
2022/05/06 06:10:10;;;;;;;70.60;27.73;;;10.20;99.90;;;;;;5116195;27;20043;-68
2022/05/06 06:12:35;;;;;;;56.60;26.70;;;10.30;99.90;;;;;;5112995;27;20047;-68
2022/05/06 06:15:01;;;;;;;51.15;27.00;;;10.50;99.90;;;;;;5093913;27;20476;-69
2022/05/06 06:17:28;;;;;;;67.97;27.80;;;10.60;99.90;;;;;;5101581;28;20130;-68
2022/05/06 06:19:54;;;;;;;63.47;26.75;;;10.70;99.90;;;;;;5099412;28;20050;-68
2022/05/06 06:22:20;;;;;;;66.43;28.83;;;10.70;99.90;;;;;;5104681;27;20047;-68
2022/05/06 06:24:45;;;;;;;67.38;26.77;;;10.70;99.90;;;;;;5109477;27;20155;-68
2022/05/06 06:27:11;;;;;;;55.85;25.77;;;10.70;99.90;;;;;;5103874;27;20491;-68
2022/05/06 06:29:37;;;;;;;46.88;25.17;;;10.80;99.90;;;;;;5091232;27;20466;-69
2022/05/06 06:32:03;;;;;;;49.38;23.20;;;10.80;99.90;;;;;;5109485;27;20078;-68
2022/05/06 06:34:29;;;;;;;40.42;22.23;;;10.80;99.90;;;;;;5109748;27;20115;-68
2022/05/06 06:36:55;;;;;;;43.47;22.85;;;10.90;99.90;;;;;;5090142;27;20568;-68
2022/05/06 06:39:20;;;;;;;42.85;22.10;;;11.10;99.90;;;;;;5097841;27;20584;-68
2022/05/06 06:41:46;;;;;;;41.60;21.23;;;11.10;99.90;;;;;;5106309;27;20548;-68
2022/05/06 06:44:12;;;;;;;43.72;22.15;;;11.20;99.90;;;;;;5091483;27;20134;-68
2022/05/06 06:46:37;;;;;;;55.20;23.38;;;11.30;99.90;;;;;;5104331;27;20061;-69
2022/05/06 06:49:06;;;;;;;39.85;21.48;;;11.30;99.90;;;;;;5100559;27;20035;-68
2022/05/06 06:51:32;;;;;;;43.28;22.85;;;11.30;99.90;;;;;;5092643;27;20437;-69
2022/05/06 06:53:58;;;;;;;45.35;23.15;;;11.40;99.90;;;;;;5101947;27;20055;-68
2022/05/06 06:56:24;;;;;;;44.90;23.15;;;11.40;99.90;;;;;;5104349;27;20085;-68
2022/05/06 06:58:50;;;;;;;47.83;22.60;;;11.50;99.90;;;;;;5111450;27;20042;-68
2022/05/06 07:01:16;;;;;;;46.10;22.92;;;11.50;99.90;;;;;;5110784;27;20400;-68
2022/05/06 07:03:42;;;;;;;46.05;21.70;;;11.60;99.90;;;;;;5109941;27;20480;-68
2022/05/06 07:14:21;;;;;;;29.48;16.17;;;11.90;99.90;;;;;;5110436;27;20053;-68
2022/05/06 07:16:51;;;;;;;25.38;15.43;;;12.00;99.90;;;;;;5109466;27;20043;-68
2022/05/06 07:19:17;;;;;;;24.58;15.05;;;12.00;99.90;;;;;;5091037;27;20121;-68
2022/05/06 07:21:42;;;;;;;22.73;13.38;;;12.10;99.90;;;;;;5114010;27;20126;-68
2022/05/06 07:24:08;;;;;;;21.95;13.27;;;12.10;99.90;;;;;;5112898;27;20059;-68
2022/05/06 07:26:34;;;;;;;23.98;12.98;;;12.10;99.90;;;;;;5121047;27;20047;-68
2022/05/06 07:28:59;;;;;;;22.65;13.88;;;12.10;99.90;;;;;;5113871;27;20473;-67
2022/05/06 07:31:25;;;;;;;22.40;13.38;;;12.20;99.90;;;;;;5113917;27;20481;-68
2022/05/06 07:33:51;;;;;;;20.50;11.50;;;12.30;99.90;;;;;;5084248;28;20109;-67
2022/05/06 07:36:16;;;;;;;19.40;11.63;;;12.40;99.90;;;;;;5094340;28;20126;-68
2022/05/06 07:38:42;;;;;;;16.42;10.48;;;12.50;99.90;;;;;;5113567;28;20372;-68
2022/05/06 07:41:08;;;;;;;16.17;10.23;;;12.60;99.90;;;;;;5100137;27;20036;-67
2022/05/06 07:43:34;;;;;;;14.80;9.63;;;12.80;99.90;;;;;;5086792;28;20047;-68
2022/05/06 07:46:00;;;;;;;13.30;8.50;;;12.80;99.90;;;;;;5096388;28;20043;-68
2022/05/06 07:48:26;;;;;;;11.35;7.90;;;13.00;99.90;;;;;;5097479;28;20637;-68
2022/05/06 07:50:51;;;;;;;10.95;7.00;;;13.10;99.90;;;;;;5114646;27;20039;-68
2022/05/06 07:53:17;;;;;;;11.00;7.32;;;13.20;99.90;;;;;;5106715;27;20523;-68
2022/05/06 07:55:43;;;;;;;10.18;7.07;;;13.30;99.90;;;;;;5108930;28;20545;-68
2022/05/06 07:58:09;;;;;;;10.02;6.50;;;13.40;99.90;;;;;;5122796;27;20043;-68
2022/05/06 08:00:36;;;;;;;10.85;7.28;;;13.50;99.90;;;;;;5116176;28;20054;-68
2022/05/06 08:05:47;;;;;;;11.52;7.63;;;13.90;99.90;;;;;;5114072;27;20062;-67
2022/05/06 08:08:14;;;;;;;12.35;8.05;;;14.20;99.90;;;;;;5123546;28;20494;-67
2022/05/06 08:10:40;;;;;;;12.32;8.38;;;14.40;99.90;;;;;;5117136;27;20488;-68
2022/05/06 08:13:06;;;;;;;11.70;7.30;;;14.50;99.90;;;;;;5094180;28;20043;-67
2022/05/06 08:15:32;;;;;;;11.60;7.72;;;14.70;99.90;;;;;;5112385;27;20159;-68
2022/05/06 08:17:58;;;;;;;10.93;7.25;;;14.60;99.90;;;;;;5104088;28;20056;-68
2022/05/06 08:20:27;;;;;;;10.73;6.90;;;14.70;99.90;;;;;;5111999;28;20488;-67
2022/05/06 08:22:52;;;;;;;11.50;7.38;;;14.80;99.90;;;;;;5118303;27;20054;-68
2022/05/06 08:25:18;;;;;;;10.70;7.18;;;14.80;99.90;;;;;;5102557;27;20035;-68
2022/05/06 08:27:44;;;;;;;9.75;6.72;;;14.90;99.90;;;;;;5125397;27;20051;-68
2022/05/06 08:30:12;;;;;;;10.30;7.07;;;15.10;99.90;;;;;;5124420;27;20039;-67
2022/05/06 08:32:39;;;;;;;10.10;6.95;;;15.10;99.90;;;;;;5121326;27;20105;-67
2022/05/06 08:35:06;;;;;;;11.60;7.45;;;15.20;99.90;;;;;;5125584;27;20445;-68
2022/05/06 08:37:45;;;;;;;11.43;7.97;;;15.30;99.90;;;;;;5092936;27;20389;-67
2022/05/06 08:40:22;;;;;;;10.70;6.82;;;15.50;99.90;;;;;;5100202;27;20484;-68
2022/05/06 08:42:49;;;;;;;11.52;7.53;;;15.60;99.90;;;;;;5106899;27;20451;-67
2022/05/06 08:51:06;;;;;;;10.38;7.82;;;16.30;99.90;;;;;;5108364;27;20063;-68
2022/05/06 08:53:37;;;;;;;11.13;7.80;;;16.30;99.90;;;;;;5097690;27;20539;-68
2022/05/06 08:56:03;;;;;;;10.15;7.85;;;16.40;99.90;;;;;;5106161;27;21552;-68
2022/05/06 08:58:34;;;;;;;12.88;7.88;;;16.50;99.90;;;;;;5106614;27;21055;-68
2022/05/06 09:01:03;;;;;;;11.82;7.60;;;16.60;99.90;;;;;;5114570;27;20049;-68
2022/05/06 09:03:29;;;;;;;11.18;7.30;;;16.80;99.90;;;;;;5109887;27;20099;-68
2022/05/06 09:05:58;;;;;;;11.93;7.85;;;16.90;99.90;;;;;;5094583;27;20389;-68
2022/05/06 09:08:42;;;;;;;13.15;8.23;;;17.00;99.90;;;;;;5108350;27;20109;-71
2022/05/06 09:11:08;;;;;;;11.88;7.50;;;17.10;99.90;;;;;;5086098;27;20046;-72
2022/05/06 09:13:51;;;;;;;11.60;8.02;;;17.10;99.90;;;;;;5113046;27;20638;-72
2022/05/06 09:19:24;;;;;;;10.57;7.28;;;17.60;99.90;;;;;;5105453;27;20209;-72
2022/05/06 09:22:11;;;;;;;11.77;7.63;;;18.30;99.90;;;;;;5119564;27;20054;-72
2022/05/06 09:24:38;;;;;;;13.65;7.30;;;18.70;99.90;;;;;;5120882;27;20131;-71
2022/05/06 09:27:11;;;;;;;10.95;7.13;;;19.00;99.90;;;;;;5120287;27;20036;-73
2022/05/06 09:29:43;;;;;;;11.23;5.95;;;19.30;99.90;;;;;;5113316;27;20043;-72
2022/05/06 09:32:24;;;;;;;8.10;5.80;;;19.70;99.90;;;;;;5121374;27;20039;-72
2022/05/06 09:34:50;;;;;;;7.80;5.82;;;19.90;99.90;;;;;;5092099;27;20546;-71
2022/05/06 09:37:33;;;;;;;9.25;6.38;;;20.10;99.90;;;;;;5120145;27;20074;-71
2022/05/06 09:40:08;;;;;;;7.88;5.30;;;20.30;99.90;;;;;;5120730;27;20046;-71
2022/05/06 09:42:35;;;;;;;8.98;5.80;;;20.40;99.90;;;;;;5118542;27;20175;-71
2022/05/06 09:45:01;;;;;;;11.50;5.65;;;20.30;99.90;;;;;;5119546;27;20054;-71
2022/05/06 09:47:27;;;;;;;7.88;5.10;;;20.00;99.90;;;;;;5116963;27;20048;-71
2022/05/06 09:49:53;;;;;;;10.00;4.95;;;19.80;99.90;;;;;;5098706;27;20043;-68
2022/05/06 09:52:19;;;;;;;8.15;5.60;;;19.50;99.90;;;;;;5117385;27;20039;-67
2022/05/06 09:54:47;;;;;;;8.00;5.07;;;19.70;99.90;;;;;;5102901;27;20118;-67
2022/05/06 09:57:16;;;;;;;7.72;5.10;;;19.70;99.90;;;;;;5120133;27;20039;-68
2022/05/06 09:59:42;;;;;;;8.30;4.35;;;19.70;99.90;;;;;;5083442;27;20047;-68
2022/05/06 10:02:09;;;;;;;7.75;5.00;;;19.70;99.90;;;;;;5101646;27;20046;-68
2022/05/06 10:04:38;;;;;;;7.82;4.93;;;19.70;99.90;;;;;;5106303;27;20104;-68
2022/05/06 10:07:07;;;;;;;7.25;4.75;;;19.90;99.90;;;;;;5100156;27;21041;-68
2022/05/06 10:09:55;;;;;;;8.27;4.53;;;20.10;99.90;;;;;;5101852;27;20664;-68
2022/05/06 10:12:22;;;;;;;7.65;4.80;;;20.30;99.90;;;;;;5105995;27;20471;-68
2022/05/06 10:14:50;;;;;;;8.05;4.72;;;20.40;99.90;;;;;;5106004;27;20054;-69
2022/05/06 10:17:48;;;;;;;7.25;4.07;;;20.60;99.90;;;;;;5108533;27;20048;-68
2022/05/06 10:20:35;;;;;;;6.60;3.85;;;20.60;99.90;;;;;;5096887;27;20150;-69
2022/05/06 10:23:07;;;;;;;6.70;4.00;;;20.50;99.90;;;;;;5113745;27;20434;-69
2022/05/06 10:25:42;;;;;;;8.80;3.47;;;20.60;99.90;;;;;;5108819;27;20043;-68
2022/05/06 10:34:14;;;;;;;4.53;2.70;;;21.00;99.90;;;;;;5118499;27;20089;-68
2022/05/06 10:36:54;;;;;;;5.57;3.22;;;21.40;99.90;;;;;;5115316;27;20051;-68
2022/05/06 10:39:21;;;;;;;5.82;2.90;;;21.60;99.90;;;;;;5119817;27;20423;-68
2022/05/06 10:42:06;;;;;;;6.43;3.30;;;21.60;99.90;;;;;;5091593;27;20047;-68
2022/05/06 10:44:35;;;;;;;4.50;2.50;;;21.70;99.90;;;;;;5113348;27;20048;-68
2022/05/06 10:47:03;;;;;;;5.28;2.85;;;21.80;99.90;;;;;;5119004;27;20054;-68
2022/05/06 10:49:35;;;;;;;6.80;2.55;;;21.70;99.90;;;;;;5111874;27;20054;-68
2022/05/06 10:52:16;;;;;;;5.78;2.80;;;21.70;99.90;;;;;;5110784;27;20070;-68
2022/05/06 10:54:53;;;;;;;4.70;2.70;;;21.80;99.90;;;;;;5107351;27;20103;-69
2022/05/06 10:57:23;;;;;;;7.43;3.42;;;22.00;99.90;;;;;;5113719;27;20474;-68
2022/05/06 10:59:52;;;;;;;5.93;2.42;;;22.00;99.90;;;;;;5113673;27;20035;-69
2022/05/06 11:02:28;;;;;;;5.38;2.63;;;22.00;99.90;;;;;;5115998;27;20051;-68
2022/05/06 11:05:03;;;;;;;5.60;2.42;;;22.20;99.90;;;;;;5114699;27;20460;-68
2022/05/06 11:07:31;;;;;;;6.55;2.83;;;22.30;99.90;;;;;;5106726;27;20075;-69
2022/05/06 11:09:57;;;;;;;6.07;3.42;;;22.40;99.90;;;;;;5114163;27;20055;-69
2022/05/06 11:12:33;;;;;;;9.32;2.90;;;22.40;99.90;;;;;;5114818;27;20459;-68
2022/05/06 11:15:03;;;;;;;5.00;2.00;;;22.50;99.90;;;;;;5094206;28;20146;-68
2022/05/06 11:17:33;;;;;;;5.93;2.45;;;22.60;99.90;;;;;;5109105;27;20043;-69
2022/05/06 11:20:05;;;;;;;6.25;2.65;;;22.30;99.90;;;;;;5112033;27;20475;-69
2022/05/06 11:22:33;;;;;;;6.30;2.50;;;22.30;99.90;;;;;;5092483;28;20208;-68
2022/05/06 11:25:03;;;;;;;4.70;2.53;;;22.40;99.90;;;;;;5111431;27;20051;-69
2022/05/06 11:27:29;;;;;;;4.05;2.05;;;22.50;99.90;;;;;;5113248;27;20039;-69
2022/05/06 11:29:57;;;;;;;4.45;1.75;;;22.60;99.90;;;;;;5103341;27;20043;-68
2022/05/06 11:32:27;;;;;;;5.78;1.60;;;22.60;99.90;;;;;;5108193;27;20754;-68
2022/05/06 11:34:52;;;;;;;6.20;1.97;;;22.40;99.60;;;;;;5093016;28;20051;-68
2022/05/06 11:37:26;;;;;;;3.58;1.50;;;22.20;99.90;;;;;;5112605;28;20068;-69
2022/05/06 11:40:18;;;;;;;3.35;1.50;;;22.10;99.90;;;;;;5114619;28;20047;-69
2022/05/06 11:42:38;;;;;;;4.88;1.92;;;22.00;99.90;;;;;;5110599;27;20048;-69
2022/05/06 11:47:49;;;;;;;3.30;1.75;;;22.40;99.90;;;;;;5113853;28;20048;-69
2022/05/06 11:50:15;;;;;;;4.60;2.08;;;22.50;99.50;;;;;;5117113;28;20036;-68
2022/05/06 11:52:43;;;;;;;4.80;1.83;;;22.60;99.90;;;;;;5089295;28;20127;-69
2022/05/06 11:55:09;;;;;;;6.15;2.30;;;22.60;99.90;;;;;;5099782;27;20039;-68
2022/05/06 11:57:37;;;;;;;6.80;2.50;;;22.60;99.90;;;;;;5101155;27;20191;-69
2022/05/06 12:00:05;;;;;;;5.85;2.80;;;22.80;99.90;;;;;;5104808;27;20046;-68
2022/05/06 12:02:31;;;;;;;4.35;2.03;;;22.90;99.90;;;;;;5105174;27;20507;-69
2022/05/06 12:04:56;;;;;;;6.60;2.00;;;22.80;99.90;;;;;;5086773;27;20270;-69
2022/05/06 12:07:47;;;;;;;4.38;1.90;;;22.70;99.90;;;;;;5113858;27;20036;-69
2022/05/06 12:10:24;;;;;;;4.10;1.92;;;22.40;99.90;;;;;;5099853;27;20463;-68
2022/05/06 12:12:57;;;;;;;6.38;2.20;;;22.10;99.90;;;;;;5108898;27;20067;-68
2022/05/06 12:15:30;;;;;;;4.80;2.30;;;22.10;99.90;;;;;;5096280;27;20063;-70
2022/05/06 12:18:07;;;;;;;7.07;2.60;;;22.30;99.90;;;;;;5109012;27;20482;-68
2022/05/06 12:20:38;;;;;;;8.15;2.58;;;22.40;99.90;;;;;;5117577;27;20032;-68
2022/05/06 12:23:09;;;;;;;4.53;2.58;;;22.30;99.90;;;;;;5112086;27;20721;-68
2022/05/06 12:25:39;;;;;;;5.78;3.10;;;22.30;99.90;;;;;;5115341;27;20414;-68
2022/05/06 12:28:16;;;;;;;7.20;3.08;;;22.10;99.90;;;;;;5109740;27;20461;-68
2022/05/06 12:30:43;;;;;;;9.10;3.50;;;21.90;99.90;;;;;;5113687;27;20126;-68
2022/05/06 12:33:17;;;;;;;5.82;3.30;;;21.70;99.90;;;;;;5123095;27;20043;-68
2022/05/06 12:35:57;;;;;;;8.73;3.72;;;21.60;99.90;;;;;;5126784;27;20039;-68
2022/05/06 12:38:38;;;;;;;6.93;3.03;;;21.40;99.90;;;;;;5113512;27;20119;-68
2022/05/06 12:41:34;;;;;;;8.35;3.60;;;21.20;99.90;;;;;;5127764;27;20043;-68
2022/05/06 12:44:16;;;;;;;6.60;3.47;;;21.30;99.90;;;;;;5103812;27;20122;-68
2022/05/06 12:46:42;;;;;;;7.00;4.00;;;21.40;99.90;;;;;;5115547;27;20456;-68
2022/05/06 12:51:52;;;;;;;7.60;3.78;;;21.90;99.90;;;;;;5132103;27;20049;-68
2022/05/06 12:54:17;;;;;;;6.38;3.50;;;21.90;99.90;;;;;;5115416;27;20118;-68
2022/05/06 12:56:43;;;;;;;7.97;3.78;;;22.00;99.90;;;;;;5116447;27;20548;-68
2022/05/06 12:59:09;;;;;;;5.95;3.40;;;22.20;99.90;;;;;;5126960;27;20531;-69
2022/05/06 13:01:36;;;;;;;7.60;3.30;;;22.30;99.90;;;;;;5126917;27;20043;-69
2022/05/06 13:04:03;;;;;;;6.88;3.58;;;22.20;99.90;;;;;;5123020;27;20050;-68
2022/05/06 13:06:32;;;;;;;7.30;3.50;;;22.30;99.90;;;;;;5130866;27;20050;-69
2022/05/06 13:09:01;;;;;;;8.02;3.35;;;22.50;99.90;;;;;;5100604;28;20048;-68
2022/05/06 13:11:27;;;;;;;6.10;3.63;;;22.60;99.90;;;;;;5119182;27;20043;-68
2022/05/06 13:13:54;;;;;;;9.60;3.70;;;22.90;99.90;;;;;;5092779;27;20505;-68
2022/05/06 13:16:20;;;;;;;8.18;3.58;;;23.10;99.90;;;;;;5111681;28;20047;-68
2022/05/06 13:18:45;;;;;;;7.50;3.38;;;23.20;99.90;;;;;;5119093;27;20039;-68
2022/05/06 13:21:11;;;;;;;6.18;3.25;;;23.30;99.90;;;;;;5119913;27;20092;-67
2022/05/06 13:23:42;;;;;;;7.22;3.30;;;23.40;97.70;;;;;;5116622;27;20043;-68
2022/05/06 13:26:08;;;;;;;8.57;4.15;;;23.30;98.90;;;;;;5098200;27;20052;-68
2022/05/06 13:28:34;;;;;;;8.43;4.68;;;23.20;97.30;;;;;;5109987;28;20148;-68
2022/05/06 13:31:00;;;;;;;6.32;3.63;;;23.00;99.20;;;;;;5119330;27;20035;-68
2022/05/06 13:33:26;;;;;;;8.27;4.45;;;22.90;99.60;;;;;;5120695;27;20043;-68